Time;durP1;ratioP1;P1;durP2;ratioP2;P2;SDS_P1;SDS_P2;PMS_P1;PMS_P2;Temp;Humidity;BMP_temperature;BMP_pressure;BME280_temperature;BME280_humidity;BME280_pressure;Samples;Min_cycle;Max_cycle;Signal;HPM_P1;HPM_P2
2023/09/24 00:01:05;;;;;;;24.52;6.40;;;20.70;99.90;;;;;;5101341;28;20016;-83
2023/09/24 00:03:34;;;;;;;17.30;5.40;;;20.70;99.90;;;;;;5110761;28;20054;-85
2023/09/24 00:06:09;;;;;;;23.33;5.85;;;20.70;99.90;;;;;;5109494;28;20023;-83
2023/09/24 00:08:36;;;;;;;22.88;5.82;;;20.70;99.90;;;;;;5112830;28;20076;-83
2023/09/24 00:11:03;;;;;;;17.90;6.30;;;20.80;99.90;;;;;;5090298;28;20118;-84
2023/09/24 00:13:34;;;;;;;16.42;5.70;;;20.70;99.90;;;;;;5089013;28;20024;-84
2023/09/24 00:16:06;;;;;;;19.40;5.90;;;20.70;99.90;;;;;;5088835;28;20033;-83
2023/09/24 00:18:34;;;;;;;23.05;5.90;;;20.70;99.90;;;;;;5088202;28;20052;-83
2023/09/24 00:21:01;;;;;;;26.48;6.78;;;20.70;99.90;;;;;;5088506;28;20031;-82
2023/09/24 00:23:30;;;;;;;15.45;6.40;;;20.70;99.90;;;;;;5088447;28;20038;-82
2023/09/24 00:25:58;;;;;;;22.98;6.65;;;20.80;99.90;;;;;;5105306;28;20020;-83
2023/09/24 00:28:26;;;;;;;14.23;6.63;;;20.70;99.90;;;;;;5072747;28;20453;-83
2023/09/24 00:30:58;;;;;;;12.45;5.88;;;20.70;99.90;;;;;;5097024;28;20024;-83
2023/09/24 00:33:27;;;;;;;18.35;6.35;;;20.70;99.90;;;;;;5074497;28;20028;-78
2023/09/24 00:35:58;;;;;;;27.17;6.82;;;20.80;99.90;;;;;;5075625;28;20012;-79
2023/09/24 00:38:27;;;;;;;21.85;7.13;;;20.90;99.90;;;;;;5061276;28;20044;-80
2023/09/24 00:40:58;;;;;;;18.92;7.45;;;20.80;99.90;;;;;;5093620;28;20607;-84
2023/09/24 00:43:33;;;;;;;13.95;7.25;;;20.70;99.90;;;;;;5074315;28;20035;-79
2023/09/24 00:46:04;;;;;;;18.35;7.35;;;20.70;99.90;;;;;;5074516;28;20028;-82
2023/09/24 00:48:32;;;;;;;11.10;6.72;;;20.70;99.90;;;;;;5079171;28;20021;-82
2023/09/24 00:51:01;;;;;;;11.00;7.20;;;20.70;99.90;;;;;;5097629;28;20047;-83
2023/09/24 00:53:34;;;;;;;26.25;7.75;;;20.60;99.90;;;;;;5075778;28;20025;-82
2023/09/24 00:56:06;;;;;;;18.08;7.43;;;20.70;99.90;;;;;;5113359;28;20035;-83
2023/09/24 00:58:38;;;;;;;14.15;6.78;;;20.70;99.90;;;;;;5113509;28;20035;-82
2023/09/24 01:01:05;;;;;;;11.32;6.00;;;20.70;99.90;;;;;;5068173;28;20028;-80
2023/09/24 01:03:32;;;;;;;16.38;6.47;;;20.60;99.90;;;;;;5075296;28;20062;-82
2023/09/24 01:05:58;;;;;;;21.15;7.32;;;20.70;99.90;;;;;;5076058;28;20494;-82
2023/09/24 01:08:35;;;;;;;17.55;7.10;;;20.70;99.90;;;;;;5093091;28;20024;-81
2023/09/24 01:11:07;;;;;;;17.13;7.30;;;20.60;99.90;;;;;;5096713;28;20124;-83
2023/09/24 01:13:46;;;;;;;14.63;7.20;;;20.60;99.90;;;;;;5074097;28;20512;-82
2023/09/24 01:16:13;;;;;;;21.13;6.75;;;20.60;99.90;;;;;;5073912;28;20036;-82
2023/09/24 01:18:41;;;;;;;17.65;7.82;;;20.60;99.90;;;;;;5113160;28;20035;-83
2023/09/24 01:21:15;;;;;;;13.45;7.22;;;20.70;99.90;;;;;;5095283;28;20028;-83
2023/09/24 01:23:45;;;;;;;12.17;6.23;;;20.80;99.90;;;;;;5073631;28;20029;-83
2023/09/24 01:26:19;;;;;;;21.80;7.40;;;20.80;99.90;;;;;;5073675;28;20031;-83
2023/09/24 01:28:47;;;;;;;17.88;6.90;;;20.80;99.90;;;;;;5080835;28;20020;-83
2023/09/24 01:31:15;;;;;;;21.08;6.50;;;20.90;99.90;;;;;;5086936;28;20176;-83
2023/09/24 01:33:43;;;;;;;17.92;6.40;;;20.80;99.90;;;;;;5095227;28;20373;-82
2023/09/24 01:36:13;;;;;;;10.32;6.30;;;20.70;99.90;;;;;;5094901;28;20111;-83
2023/09/24 01:38:40;;;;;;;13.85;6.35;;;20.70;99.90;;;;;;5095910;28;20040;-83
2023/09/24 01:41:10;;;;;;;19.42;6.82;;;20.70;99.90;;;;;;5078608;28;20025;-82
2023/09/24 01:43:45;;;;;;;20.67;6.28;;;20.70;99.90;;;;;;5074686;28;20025;-81
2023/09/24 01:46:15;;;;;;;18.63;6.72;;;20.70;99.90;;;;;;5073434;28;20477;-83
2023/09/24 01:48:44;;;;;;;18.65;6.70;;;20.70;99.90;;;;;;5078500;28;20028;-83
2023/09/24 01:51:11;;;;;;;16.77;6.65;;;20.70;99.90;;;;;;5078942;28;20028;-83
2023/09/24 01:53:42;;;;;;;21.05;6.35;;;20.60;99.90;;;;;;5056700;28;20371;-82
2023/09/24 01:56:12;;;;;;;11.73;6.15;;;20.60;99.90;;;;;;5073097;28;20031;-82
2023/09/24 01:58:45;;;;;;;21.30;6.47;;;20.60;99.90;;;;;;5077847;28;20040;-83
2023/09/24 02:01:11;;;;;;;17.95;6.50;;;20.60;99.90;;;;;;5104348;28;20066;-81
2023/09/24 02:03:41;;;;;;;16.13;5.72;;;20.60;99.90;;;;;;5093423;28;20039;-83
2023/09/24 02:06:14;;;;;;;21.25;6.35;;;20.60;99.90;;;;;;5076467;28;20499;-83
2023/09/24 02:08:47;;;;;;;19.88;6.18;;;20.60;99.90;;;;;;5095826;28;20063;-83
2023/09/24 02:11:18;;;;;;;15.63;5.90;;;20.60;99.90;;;;;;5104283;28;20050;-82
2023/09/24 02:13:48;;;;;;;20.13;6.43;;;20.60;99.90;;;;;;5093514;28;20038;-83
2023/09/24 02:16:18;;;;;;;18.25;6.90;;;20.60;99.90;;;;;;5093072;28;20366;-83
2023/09/24 02:18:44;;;;;;;13.73;6.15;;;20.60;99.90;;;;;;5095216;28;20044;-83
2023/09/24 02:21:17;;;;;;;17.95;6.20;;;20.70;99.90;;;;;;5104777;28;20028;-83
2023/09/24 02:23:48;;;;;;;19.20;6.30;;;20.70;99.90;;;;;;5093006;28;20056;-83
2023/09/24 02:26:15;;;;;;;21.35;6.53;;;20.70;99.90;;;;;;5092610;28;20270;-83
2023/09/24 02:28:44;;;;;;;27.60;6.70;;;20.70;99.90;;;;;;5094540;28;20125;-83
2023/09/24 02:31:15;;;;;;;17.80;5.90;;;20.70;99.90;;;;;;5085251;28;20493;-82
2023/09/24 02:33:41;;;;;;;21.60;6.50;;;20.60;99.90;;;;;;5091342;28;20028;-83
2023/09/24 02:36:08;;;;;;;20.08;6.32;;;20.60;99.90;;;;;;5074974;28;20044;-83
2023/09/24 02:38:36;;;;;;;17.23;5.68;;;20.60;99.90;;;;;;5074300;28;20033;-83
2023/09/24 02:41:06;;;;;;;16.77;6.13;;;20.60;99.90;;;;;;5090209;28;20045;-83
2023/09/24 02:43:34;;;;;;;21.08;6.15;;;20.60;99.90;;;;;;5092563;28;20036;-83
2023/09/24 02:46:03;;;;;;;16.67;5.68;;;20.60;99.90;;;;;;5075698;28;20124;-83
2023/09/24 02:48:32;;;;;;;20.45;5.50;;;20.60;99.90;;;;;;5092608;28;20042;-83
2023/09/24 02:51:10;;;;;;;19.88;5.85;;;20.60;99.90;;;;;;5107627;28;20030;-83
2023/09/24 02:53:37;;;;;;;20.98;6.18;;;20.60;99.90;;;;;;5092218;28;20102;-83
2023/09/24 02:56:04;;;;;;;19.15;5.72;;;20.70;99.90;;;;;;5092229;28;20099;-81
2023/09/24 02:58:31;;;;;;;31.98;6.53;;;20.70;99.90;;;;;;5088738;28;20043;-83
2023/09/24 03:00:59;;;;;;;21.20;6.03;;;20.70;99.90;;;;;;5088782;28;20119;-83
2023/09/24 03:03:26;;;;;;;16.85;5.80;;;20.70;99.90;;;;;;5092268;28;20054;-82
2023/09/24 03:05:53;;;;;;;23.92;7.28;;;20.70;99.90;;;;;;5075259;28;20024;-83
2023/09/24 03:08:21;;;;;;;12.70;5.53;;;20.70;99.90;;;;;;5075314;28;20066;-83
2023/09/24 03:10:51;;;;;;;21.65;6.55;;;20.70;99.90;;;;;;5110970;28;20026;-82
2023/09/24 03:13:18;;;;;;;31.25;8.60;;;20.60;99.90;;;;;;5085269;28;20089;-83
2023/09/24 03:15:45;;;;;;;16.58;6.15;;;20.60;99.90;;;;;;5081578;28;20028;-83
2023/09/24 03:18:13;;;;;;;19.25;6.15;;;20.60;99.90;;;;;;5090831;28;20558;-84
2023/09/24 03:20:40;;;;;;;24.15;6.78;;;20.60;99.90;;;;;;5092970;28;20030;-83
2023/09/24 03:23:10;;;;;;;11.55;5.40;;;20.60;99.90;;;;;;5079611;28;20032;-83
2023/09/24 03:25:40;;;;;;;22.25;6.22;;;20.60;99.90;;;;;;5092899;28;20100;-84
2023/09/24 03:28:08;;;;;;;14.90;6.10;;;20.60;99.90;;;;;;5064192;28;20031;-83
2023/09/24 03:30:37;;;;;;;22.98;6.38;;;20.60;99.90;;;;;;5125544;28;20019;-83
2023/09/24 03:33:04;;;;;;;22.88;6.50;;;20.70;99.90;;;;;;5080606;28;20035;-83
2023/09/24 03:35:31;;;;;;;16.52;6.47;;;20.70;99.90;;;;;;5091737;28;20427;-84
2023/09/24 03:37:59;;;;;;;20.25;6.45;;;20.70;99.90;;;;;;5091493;28;20105;-83
2023/09/24 03:40:28;;;;;;;16.73;6.80;;;20.60;99.90;;;;;;5102211;28;20024;-84
2023/09/24 03:42:56;;;;;;;17.58;6.47;;;20.60;99.90;;;;;;5092826;28;20048;-83
2023/09/24 03:45:24;;;;;;;18.05;6.70;;;20.60;99.90;;;;;;5092894;28;20020;-83
2023/09/24 03:48:00;;;;;;;16.52;6.10;;;20.50;99.90;;;;;;5074868;28;20429;-83
2023/09/24 03:50:27;;;;;;;17.40;6.35;;;20.60;99.90;;;;;;5101148;28;20103;-83
2023/09/24 03:52:56;;;;;;;17.88;6.00;;;20.60;99.90;;;;;;5091523;28;20028;-83
2023/09/24 03:55:23;;;;;;;14.07;6.13;;;20.60;99.90;;;;;;5092772;28;20028;-84
2023/09/24 03:57:52;;;;;;;11.90;6.93;;;20.60;99.90;;;;;;5091552;28;20128;-83
2023/09/24 04:00:20;;;;;;;17.88;6.63;;;20.50;99.90;;;;;;5100926;28;20020;-84
2023/09/24 04:02:49;;;;;;;11.10;6.40;;;20.50;99.90;;;;;;5074594;28;20457;-83
2023/09/24 04:05:21;;;;;;;13.55;5.80;;;20.50;99.90;;;;;;5077188;28;20389;-83
2023/09/24 04:07:50;;;;;;;14.50;6.25;;;20.50;99.90;;;;;;5095232;28;20046;-83
2023/09/24 04:10:22;;;;;;;15.30;6.00;;;20.40;99.90;;;;;;5088124;28;20031;-83
2023/09/24 04:12:52;;;;;;;10.20;6.03;;;20.40;99.90;;;;;;5095183;28;20024;-83
2023/09/24 04:15:27;;;;;;;17.50;6.32;;;20.40;99.90;;;;;;5095373;28;20396;-83
2023/09/24 04:17:59;;;;;;;14.90;5.85;;;20.40;99.90;;;;;;5095892;28;20055;-84
2023/09/24 04:20:29;;;;;;;18.63;6.28;;;20.40;99.90;;;;;;5090840;28;20021;-83
2023/09/24 04:22:58;;;;;;;9.45;5.57;;;20.40;99.90;;;;;;5074671;28;20032;-83
2023/09/24 04:25:26;;;;;;;19.00;7.07;;;20.30;99.90;;;;;;5091468;28;20032;-83
2023/09/24 04:27:53;;;;;;;15.05;6.82;;;20.30;99.90;;;;;;5092044;28;20008;-83
2023/09/24 04:30:22;;;;;;;13.07;6.85;;;20.30;99.90;;;;;;5104891;28;20076;-83
2023/09/24 04:32:57;;;;;;;14.65;6.18;;;20.30;99.90;;;;;;5095919;28;20068;-80
2023/09/24 04:35:27;;;;;;;11.32;6.50;;;20.30;99.90;;;;;;5094561;28;20024;-84
2023/09/24 04:37:57;;;;;;;10.30;6.10;;;20.20;99.90;;;;;;5094661;28;20032;-84
2023/09/24 04:40:25;;;;;;;12.82;6.75;;;20.20;99.90;;;;;;5104869;28;20021;-84
2023/09/24 04:42:51;;;;;;;19.13;7.07;;;20.10;99.90;;;;;;5094595;28;20028;-82
2023/09/24 04:45:18;;;;;;;14.25;6.45;;;20.10;99.90;;;;;;5094453;28;20405;-81
2023/09/24 04:47:46;;;;;;;14.93;6.88;;;20.00;99.90;;;;;;5094338;28;20101;-84
2023/09/24 04:50:16;;;;;;;16.95;7.00;;;20.00;99.90;;;;;;5088017;28;20091;-81
2023/09/24 04:52:44;;;;;;;19.75;7.10;;;20.00;99.90;;;;;;5073579;28;20025;-81
2023/09/24 04:55:15;;;;;;;15.23;6.32;;;20.00;99.90;;;;;;5073802;28;20355;-82
2023/09/24 04:57:45;;;;;;;16.77;6.65;;;19.90;99.90;;;;;;5089969;28;20109;-82
2023/09/24 05:00:14;;;;;;;22.17;6.60;;;20.00;99.90;;;;;;5105848;28;20028;-82
2023/09/24 05:02:44;;;;;;;15.55;6.43;;;20.00;99.90;;;;;;5073931;28;20029;-82
2023/09/24 05:05:11;;;;;;;13.70;6.28;;;20.00;99.90;;;;;;5057276;28;20029;-82
2023/09/24 05:07:38;;;;;;;16.38;6.35;;;19.90;99.90;;;;;;5075077;28;20044;-82
2023/09/24 05:10:06;;;;;;;10.55;6.65;;;20.00;99.90;;;;;;5073607;28;20032;-82
2023/09/24 05:12:32;;;;;;;10.73;6.53;;;20.00;99.90;;;;;;5072255;28;20024;-82
2023/09/24 05:14:59;;;;;;;14.55;6.75;;;19.90;99.90;;;;;;5090321;28;20115;-82
2023/09/24 05:17:25;;;;;;;14.45;6.32;;;20.00;99.90;;;;;;5090126;28;20042;-82
2023/09/24 05:19:52;;;;;;;16.35;6.78;;;20.00;99.90;;;;;;5102973;28;20118;-82
2023/09/24 05:22:19;;;;;;;11.55;6.68;;;20.00;99.90;;;;;;5097337;28;20107;-83
2023/09/24 05:24:45;;;;;;;10.27;6.03;;;20.00;99.90;;;;;;5093785;28;20028;-83
2023/09/24 05:27:13;;;;;;;14.20;6.50;;;20.00;99.90;;;;;;5076818;28;20431;-82
2023/09/24 05:29:45;;;;;;;13.57;6.88;;;20.00;99.90;;;;;;5101396;28;20111;-83
2023/09/24 05:32:11;;;;;;;12.40;6.68;;;20.00;99.90;;;;;;5097337;28;20032;-83
2023/09/24 05:34:42;;;;;;;12.73;6.82;;;20.10;99.90;;;;;;5076848;28;20027;-83
2023/09/24 05:37:12;;;;;;;15.57;6.72;;;20.20;99.90;;;;;;5093370;28;20120;-84
2023/09/24 05:39:39;;;;;;;18.33;7.72;;;20.20;99.90;;;;;;5077410;28;20031;-87
2023/09/24 05:42:05;;;;;;;15.15;7.68;;;20.20;99.90;;;;;;5093983;28;20039;-88
2023/09/24 05:44:32;;;;;;;8.93;7.60;;;20.20;99.90;;;;;;5089972;22;20024;-82
2023/09/24 05:46:59;;;;;;;13.48;8.10;;;20.20;99.90;;;;;;5033993;28;20473;-76
2023/09/24 05:49:26;;;;;;;11.75;7.43;;;20.20;99.90;;;;;;5075912;28;20024;-76
2023/09/24 05:51:52;;;;;;;12.27;7.70;;;20.50;99.90;;;;;;5073360;28;20024;-76
2023/09/24 05:54:19;;;;;;;9.40;8.52;;;20.80;99.90;;;;;;5067704;28;20043;-75
2023/09/24 05:56:45;;;;;;;10.40;9.40;;;21.00;99.90;;;;;;5066942;28;20027;-77
2023/09/24 05:59:12;;;;;;;12.75;10.60;;;21.30;99.90;;;;;;5065176;28;20031;-77
2023/09/24 06:01:39;;;;;;;12.52;11.20;;;21.40;99.90;;;;;;5070605;28;20100;-76
2023/09/24 06:04:06;;;;;;;12.77;11.57;;;21.50;99.90;;;;;;5050737;28;20116;-76
2023/09/24 06:06:33;;;;;;;18.98;11.90;;;21.50;99.90;;;;;;5067610;28;20473;-77
2023/09/24 06:08:59;;;;;;;12.70;11.25;;;21.30;99.90;;;;;;5063734;28;20052;-78
2023/09/24 06:11:26;;;;;;;12.75;11.43;;;21.30;99.90;;;;;;5042270;28;20548;-78
2023/09/24 06:13:52;;;;;;;13.57;11.52;;;21.40;99.90;;;;;;5067873;28;20481;-79
2023/09/24 06:16:19;;;;;;;13.10;11.88;;;21.60;99.90;;;;;;5093967;28;20458;-77
2023/09/24 06:18:45;;;;;;;13.40;12.00;;;21.70;99.90;;;;;;5093783;28;20043;-79
2023/09/24 06:21:16;;;;;;;15.88;12.73;;;21.80;99.90;;;;;;5074353;28;20021;-79
2023/09/24 06:23:45;;;;;;;15.32;13.40;;;21.90;99.90;;;;;;5078695;28;20054;-78
2023/09/24 06:26:13;;;;;;;17.75;15.90;;;21.90;99.90;;;;;;5093621;28;20022;-79
2023/09/24 06:28:40;;;;;;;22.13;17.33;;;22.20;99.90;;;;;;5093368;28;20031;-78
2023/09/24 06:31:06;;;;;;;19.75;17.90;;;22.30;99.90;;;;;;5072949;28;20016;-79
2023/09/24 06:33:34;;;;;;;20.52;18.50;;;22.40;99.90;;;;;;5075980;28;20016;-78
2023/09/24 06:36:04;;;;;;;21.90;19.75;;;22.70;99.90;;;;;;5093564;28;20432;-79
2023/09/24 06:38:32;;;;;;;22.13;20.30;;;22.90;99.90;;;;;;5093353;28;20040;-79
2023/09/24 06:41:03;;;;;;;23.65;21.52;;;23.30;99.90;;;;;;5076005;28;20028;-79
2023/09/24 06:43:30;;;;;;;24.02;21.92;;;23.40;99.90;;;;;;5076045;28;20065;-79
2023/09/24 06:45:57;;;;;;;22.85;21.15;;;23.70;99.90;;;;;;5093241;28;20073;-79
2023/09/24 06:48:25;;;;;;;24.90;22.77;;;23.90;99.90;;;;;;5093397;28;20028;-79
2023/09/24 06:50:58;;;;;;;26.00;24.00;;;24.20;99.90;;;;;;5077101;28;20021;-81
2023/09/24 06:53:32;;;;;;;28.40;25.98;;;24.40;99.90;;;;;;5071944;28;20035;-79
2023/09/24 06:55:58;;;;;;;27.92;25.70;;;24.50;99.90;;;;;;5093265;28;20031;-79
2023/09/24 06:58:25;;;;;;;28.70;26.17;;;25.20;99.90;;;;;;5078728;28;20378;-79
2023/09/24 07:00:52;;;;;;;29.20;27.05;;;25.50;99.90;;;;;;5057080;28;20029;-79
2023/09/24 07:03:18;;;;;;;29.23;26.90;;;25.20;99.90;;;;;;5079158;28;20043;-79
2023/09/24 07:05:45;;;;;;;29.42;27.10;;;25.20;99.90;;;;;;5093198;28;20575;-79
2023/09/24 07:08:13;;;;;;;30.52;27.70;;;24.70;99.90;;;;;;5093044;28;20488;-79
2023/09/24 07:10:40;;;;;;;28.75;26.48;;;24.10;99.90;;;;;;5061095;28;20389;-79
2023/09/24 07:13:06;;;;;;;28.98;26.67;;;23.80;99.90;;;;;;5081061;28;20412;-79
2023/09/24 07:15:33;;;;;;;29.20;26.65;;;23.70;99.90;;;;;;5072854;28;20032;-79
2023/09/24 07:18:03;;;;;;;31.42;28.63;;;23.90;99.90;;;;;;5072768;28;20078;-80
2023/09/24 07:20:33;;;;;;;33.15;29.75;;;24.10;99.90;;;;;;5054638;28;20437;-80
2023/09/24 07:23:11;;;;;;;34.20;30.75;;;24.60;99.90;;;;;;5069149;28;20024;-77
2023/09/24 07:25:39;;;;;;;31.83;29.25;;;25.10;99.90;;;;;;5046960;28;20021;-78
2023/09/24 07:28:06;;;;;;;30.73;28.23;;;25.60;99.90;;;;;;5072971;28;20031;-79
2023/09/24 07:30:37;;;;;;;31.20;28.73;;;25.90;99.90;;;;;;5066862;28;20531;-84
2023/09/24 07:33:03;;;;;;;30.05;27.92;;;26.20;99.90;;;;;;5048548;28;20025;-83
2023/09/24 07:35:30;;;;;;;31.42;28.88;;;26.30;99.90;;;;;;5053991;28;20466;-86
2023/09/24 07:37:58;;;;;;;31.63;29.13;;;26.10;99.90;;;;;;5048407;28;20090;-84
2023/09/24 07:40:43;;;;;;;31.83;29.45;;;26.30;99.90;;;;;;5036331;28;20021;-83
2023/09/24 07:43:19;;;;;;;32.55;30.10;;;26.20;99.90;;;;;;5052237;28;20074;-81
2023/09/24 07:45:47;;;;;;;33.70;31.27;;;26.10;99.90;;;;;;5060977;28;20048;-90
2023/09/24 07:48:15;;;;;;;32.95;30.55;;;26.60;99.90;;;;;;5040056;28;20112;-90
2023/09/24 07:51:10;;;;;;;34.67;32.05;;;26.90;99.90;;;;;;5040008;28;20074;-86
2023/09/24 07:54:02;;;;;;;35.50;32.83;;;27.00;99.90;;;;;;5058299;28;20067;-89
2023/09/24 07:56:34;;;;;;;36.17;33.67;;;27.10;99.90;;;;;;5043268;28;20088;-90
2023/09/24 07:59:07;;;;;;;35.65;33.45;;;27.30;99.90;;;;;;5039755;28;20040;-88
2023/09/24 08:02:17;;;;;;;37.75;35.22;;;27.10;99.90;;;;;;5044064;28;20039;-89
2023/09/24 08:04:44;;;;;;;36.17;33.78;;;27.70;99.90;;;;;;5040268;28;20037;-90
2023/09/24 08:07:36;;;;;;;37.83;35.08;;;27.30;99.90;;;;;;5057084;28;20048;-88
2023/09/24 08:10:26;;;;;;;37.22;34.67;;;26.90;99.90;;;;;;5056913;28;20028;-88
2023/09/24 08:13:23;;;;;;;36.80;34.08;;;27.00;99.90;;;;;;5055810;28;20021;-89
2023/09/24 08:15:57;;;;;;;36.08;33.17;;;27.40;99.90;;;;;;5055741;28;20033;-87
2023/09/24 08:18:38;;;;;;;35.30;32.90;;;27.30;99.90;;;;;;5056228;28;20049;-89
2023/09/24 08:21:13;;;;;;;36.38;33.78;;;26.80;99.90;;;;;;5056806;28;20021;-87
2023/09/24 08:23:41;;;;;;;35.42;33.10;;;26.80;99.90;;;;;;5038674;28;20032;-84
2023/09/24 08:26:07;;;;;;;34.22;32.03;;;27.10;99.90;;;;;;5038534;28;20104;-80
2023/09/24 08:28:41;;;;;;;34.88;32.30;;;27.10;99.90;;;;;;5037852;28;20040;-80
2023/09/24 08:31:20;;;;;;;36.17;33.17;;;27.00;99.90;;;;;;5057420;28;20462;-88
2023/09/24 08:33:50;;;;;;;35.58;33.03;;;26.90;99.90;;;;;;5061038;28;20035;-91
2023/09/24 08:36:21;;;;;;;35.90;33.00;;;26.60;99.90;;;;;;5061286;28;20037;-92
2023/09/24 08:38:48;;;;;;;35.20;32.80;;;26.50;99.90;;;;;;5044803;28;20068;-91
2023/09/24 08:41:14;;;;;;;35.75;33.35;;;26.70;99.90;;;;;;5044912;28;20115;-89
2023/09/24 08:43:44;;;;;;;35.80;33.28;;;26.60;99.90;;;;;;5045709;28;20024;-91
2023/09/24 08:46:11;;;;;;;35.75;33.45;;;26.90;99.90;;;;;;5041952;28;20132;-91
2023/09/24 08:48:39;;;;;;;36.38;34.05;;;26.60;99.90;;;;;;5042488;28;20393;-91
2023/09/24 08:51:08;;;;;;;36.00;33.50;;;26.60;99.90;;;;;;5040431;28;20378;-90
2023/09/24 08:53:35;;;;;;;36.83;34.35;;;26.70;99.90;;;;;;5039154;28;20060;-87
2023/09/24 08:56:03;;;;;;;37.55;34.85;;;26.70;99.90;;;;;;5039963;28;20048;-88
2023/09/24 08:58:30;;;;;;;36.25;33.58;;;26.20;99.90;;;;;;5038755;28;20041;-89
2023/09/24 09:00:56;;;;;;;36.85;34.30;;;26.10;99.90;;;;;;5039474;28;20017;-86
2023/09/24 09:03:23;;;;;;;36.92;33.92;;;26.20;99.90;;;;;;5038493;28;20029;-90
2023/09/24 09:05:51;;;;;;;35.85;33.30;;;26.30;99.90;;;;;;5039386;28;20071;-88
2023/09/24 09:08:18;;;;;;;36.10;33.17;;;26.40;99.90;;;;;;5055354;28;20067;-90
2023/09/24 09:10:48;;;;;;;36.00;33.55;;;26.30;99.90;;;;;;5035383;28;20025;-90
2023/09/24 09:13:18;;;;;;;36.00;33.30;;;26.20;99.90;;;;;;5034973;28;20030;-88
2023/09/24 09:15:46;;;;;;;35.70;33.08;;;26.10;99.90;;;;;;5034725;28;20029;-89
2023/09/24 09:18:23;;;;;;;35.70;33.13;;;26.10;99.90;;;;;;5017964;28;20029;-87
2023/09/24 09:20:51;;;;;;;35.67;32.97;;;26.00;99.90;;;;;;5018277;28;20049;-88
2023/09/24 09:23:30;;;;;;;35.83;33.45;;;25.90;99.90;;;;;;5034326;28;20053;-86
2023/09/24 09:25:57;;;;;;;35.53;33.20;;;26.00;99.90;;;;;;5017267;28;20080;-85
2023/09/24 09:28:26;;;;;;;35.92;33.28;;;26.50;99.90;;;;;;5035112;28;20025;-87
2023/09/24 09:31:11;;;;;;;35.45;32.97;;;26.10;99.90;;;;;;5057339;28;20043;-84
2023/09/24 09:33:42;;;;;;;36.75;34.33;;;25.90;99.90;;;;;;5055717;28;20033;-80
2023/09/24 09:36:27;;;;;;;36.20;33.72;;;26.00;99.90;;;;;;5053486;28;20119;-82
2023/09/24 09:38:59;;;;;;;36.08;33.45;;;26.20;99.90;;;;;;5053163;28;20043;-81
2023/09/24 09:41:26;;;;;;;35.38;32.97;;;26.50;99.90;;;;;;5053112;28;20031;-82
2023/09/24 09:43:53;;;;;;;37.30;33.88;;;26.60;99.90;;;;;;5053346;28;20029;-82
2023/09/24 09:46:23;;;;;;;36.30;33.50;;;26.80;99.90;;;;;;5053113;28;20116;-82
2023/09/24 09:49:07;;;;;;;35.88;33.28;;;26.90;99.90;;;;;;5054708;28;20025;-82
2023/09/24 09:51:39;;;;;;;;;;;26.90;99.90;;;;;;5054755;28;20033;-82
2023/09/24 09:54:06;;;;;;;35.67;32.80;;;26.80;99.90;;;;;;5036314;28;19909;-82
2023/09/24 09:56:36;;;;;;;36.83;33.45;;;26.90;99.90;;;;;;5054092;28;20017;-82
2023/09/24 09:59:04;;;;;;;36.22;33.88;;;27.00;99.90;;;;;;5052833;28;20163;-82
2023/09/24 10:01:31;;;;;;;36.03;33.42;;;27.20;99.90;;;;;;5051810;28;20025;-82
2023/09/24 10:04:03;;;;;;;36.42;33.72;;;27.30;99.90;;;;;;5052746;28;20098;-82
2023/09/24 10:06:37;;;;;;;35.60;33.25;;;27.40;99.90;;;;;;5053948;28;20029;-82
2023/09/24 10:09:31;;;;;;;36.42;33.90;;;27.50;99.90;;;;;;5052877;28;20375;-82
2023/09/24 10:11:58;;;;;;;;;;;27.50;99.90;;;;;;5033018;28;20554;-82
2023/09/24 10:14:42;;;;;;;37.42;34.67;;;27.50;99.90;;;;;;5033941;28;19943;-81
2023/09/24 10:17:16;;;;;;;37.08;34.58;;;27.10;99.90;;;;;;5016172;28;20029;-82
2023/09/24 10:19:49;;;;;;;37.28;34.88;;;27.10;99.90;;;;;;5035513;28;20032;-82
2023/09/24 10:22:30;;;;;;;36.00;33.78;;;27.20;99.90;;;;;;5052274;28;20025;-81
2023/09/24 10:24:57;;;;;;;36.10;33.67;;;27.00;99.90;;;;;;5032359;28;20029;-81
2023/09/24 10:27:30;;;;;;;36.13;33.53;;;26.70;99.90;;;;;;5032285;28;20056;-82
2023/09/24 10:29:57;;;;;;;35.97;33.15;;;26.60;99.90;;;;;;5052402;28;20060;-81
2023/09/24 10:32:25;;;;;;;35.47;33.08;;;26.70;99.90;;;;;;5035446;28;20469;-81
2023/09/24 10:34:55;;;;;;;35.60;33.08;;;26.60;99.90;;;;;;5052183;28;20053;-83
2023/09/24 10:37:24;;;;;;;34.40;32.08;;;26.30;99.90;;;;;;5052065;28;20025;-82
2023/09/24 10:40:00;;;;;;;33.28;31.08;;;26.10;99.90;;;;;;5032081;28;20029;-82
2023/09/24 10:42:31;;;;;;;33.78;31.27;;;26.00;99.90;;;;;;5032044;28;20025;-82
2023/09/24 10:45:10;;;;;;;33.05;30.77;;;26.10;99.90;;;;;;5048349;28;20049;-82
2023/09/24 10:47:45;;;;;;;34.28;31.77;;;26.40;99.90;;;;;;5031956;28;20414;-82
2023/09/24 10:50:18;;;;;;;;;;;26.70;99.90;;;;;;5035843;28;20473;-81
2023/09/24 10:52:53;;;;;;;34.97;32.00;;;26.50;99.90;;;;;;5051737;28;20381;-83
2023/09/24 10:55:30;;;;;;;34.45;32.15;;;26.40;99.90;;;;;;5062484;28;20028;-82
2023/09/24 10:58:08;;;;;;;35.45;32.67;;;26.10;99.90;;;;;;5065220;28;20033;-82
2023/09/24 11:00:35;;;;;;;34.65;32.10;;;26.40;99.90;;;;;;5025799;28;20033;-82
2023/09/24 11:03:16;;;;;;;33.92;31.58;;;26.40;99.90;;;;;;5015391;28;20580;-82
2023/09/24 11:05:45;;;;;;;34.60;32.20;;;26.50;99.90;;;;;;5031857;28;20033;-83
2023/09/24 11:08:14;;;;;;;34.70;32.40;;;26.50;99.90;;;;;;5031827;28;20022;-83
2023/09/24 11:10:46;;;;;;;35.28;32.83;;;26.60;99.90;;;;;;5025396;28;20367;-84
2023/09/24 11:13:12;;;;;;;35.80;33.15;;;26.60;99.90;;;;;;5034898;28;20119;-82
2023/09/24 11:15:41;;;;;;;35.03;32.58;;;26.60;99.90;;;;;;5051790;28;20025;-83
2023/09/24 11:18:12;;;;;;;34.53;32.33;;;26.60;99.90;;;;;;5035148;28;20033;-83
2023/09/24 11:20:48;;;;;;;34.20;32.03;;;26.60;99.90;;;;;;5025345;28;20060;-83
2023/09/24 11:23:14;;;;;;;35.17;32.63;;;26.50;99.90;;;;;;5015119;28;20546;-84
2023/09/24 11:25:47;;;;;;;36.53;33.95;;;26.60;99.90;;;;;;5015300;28;20036;-84
2023/09/24 11:28:14;;;;;;;35.50;33.20;;;26.80;99.90;;;;;;5015362;28;20116;-84
2023/09/24 11:30:49;;;;;;;35.22;32.83;;;26.80;99.90;;;;;;5025138;28;20025;-84
2023/09/24 11:33:21;;;;;;;35.75;33.55;;;26.80;99.90;;;;;;5035407;28;20550;-85
2023/09/24 11:35:50;;;;;;;35.67;33.38;;;26.80;99.90;;;;;;5052136;28;20115;-85
2023/09/24 11:38:49;;;;;;;36.08;33.45;;;26.70;99.90;;;;;;5051678;28;20033;-86
2023/09/24 11:41:16;;;;;;;36.15;33.42;;;26.60;99.90;;;;;;5038210;28;20030;-84
2023/09/24 11:43:44;;;;;;;33.13;30.90;;;26.80;99.90;;;;;;5031902;28;20021;-84
2023/09/24 11:46:18;;;;;;;31.83;29.42;;;27.10;99.90;;;;;;5031579;28;20494;-85
2023/09/24 11:48:46;;;;;;;31.60;29.00;;;27.00;99.90;;;;;;5031695;28;20048;-83
2023/09/24 11:51:16;;;;;;;31.58;29.38;;;27.20;99.90;;;;;;5015142;28;20017;-84
2023/09/24 11:53:42;;;;;;;30.27;28.17;;;27.00;99.90;;;;;;5015209;28;20116;-84
2023/09/24 11:56:09;;;;;;;31.17;28.65;;;26.90;99.90;;;;;;5015256;28;20030;-84
2023/09/24 11:58:36;;;;;;;30.02;27.67;;;26.50;99.90;;;;;;5031456;28;20067;-84
2023/09/24 12:01:04;;;;;;;29.58;27.65;;;26.00;99.90;;;;;;5027415;28;20116;-84
2023/09/24 12:03:30;;;;;;;29.85;27.83;;;26.10;99.90;;;;;;5052778;28;20029;-85
2023/09/24 12:05:56;;;;;;;30.10;27.77;;;26.10;99.90;;;;;;5051551;28;20021;-84
2023/09/24 12:08:23;;;;;;;28.33;26.33;;;26.00;99.90;;;;;;5051355;28;20054;-85
2023/09/24 12:10:52;;;;;;;28.00;25.73;;;26.00;99.90;;;;;;5024365;28;20026;-84
2023/09/24 12:13:18;;;;;;;27.10;25.20;;;26.10;99.90;;;;;;5031344;28;20029;-84
2023/09/24 12:15:45;;;;;;;27.83;25.63;;;26.10;99.90;;;;;;5033760;28;20047;-84
2023/09/24 12:18:11;;;;;;;27.70;25.55;;;25.70;99.90;;;;;;5031118;28;20038;-83
2023/09/24 12:20:40;;;;;;;27.17;25.00;;;25.70;99.90;;;;;;5041046;28;20020;-84
2023/09/24 12:23:08;;;;;;;27.00;24.98;;;25.50;99.90;;;;;;5052215;28;20388;-84
2023/09/24 12:25:36;;;;;;;27.58;25.45;;;25.50;99.90;;;;;;5052724;28;20028;-83
2023/09/24 12:28:04;;;;;;;27.85;25.90;;;25.40;99.90;;;;;;5057973;28;20025;-84
2023/09/24 12:30:31;;;;;;;28.52;26.02;;;25.60;99.90;;;;;;5038402;28;20036;-85
2023/09/24 12:32:59;;;;;;;27.38;25.42;;;26.00;99.90;;;;;;5054520;28;20031;-85
2023/09/24 12:35:26;;;;;;;29.52;27.42;;;26.00;99.90;;;;;;5054533;28;20043;-88
2023/09/24 12:37:54;;;;;;;26.65;24.70;;;26.10;99.90;;;;;;5055495;28;20163;-87
2023/09/24 12:40:22;;;;;;;26.95;24.92;;;26.20;99.90;;;;;;5035319;28;20026;-86
2023/09/24 12:42:49;;;;;;;27.27;25.25;;;25.90;99.90;;;;;;5019898;28;20037;-90
2023/09/24 12:45:16;;;;;;;27.35;25.30;;;25.70;99.90;;;;;;5019230;28;20575;-86
2023/09/24 12:47:45;;;;;;;26.90;24.73;;;25.50;99.90;;;;;;5022492;28;20030;-86